Time;durP1;ratioP1;P1;durP2;ratioP2;P2;SDS_P1;SDS_P2;PMS_P1;PMS_P2;Temp;Humidity;BMP_temperature;BMP_pressure;BME280_temperature;BME280_humidity;BME280_pressure;Samples;Min_cycle;Max_cycle;Signal;HPM_P1;HPM_P2
2022/05/09 00:02:10;;;;;;;2.55;2.45;;;14.40;99.90;;;;;;5025799;28;20278;-77
2022/05/09 00:04:39;;;;;;;2.65;2.50;;;14.40;99.90;;;;;;5023179;28;20234;-78
2022/05/09 00:07:06;;;;;;;2.53;2.42;;;14.30;99.90;;;;;;5024602;28;20311;-78
2022/05/09 00:09:34;;;;;;;2.78;2.63;;;14.30;99.90;;;;;;5020135;28;20212;-77
2022/05/09 00:12:02;;;;;;;2.67;2.47;;;14.30;99.90;;;;;;5032325;28;20225;-76
2022/05/09 00:14:29;;;;;;;2.55;2.35;;;14.30;99.90;;;;;;5024553;28;20285;-78
2022/05/09 00:16:56;;;;;;;2.40;2.20;;;14.30;99.90;;;;;;5022937;28;20235;-77
2022/05/09 00:19:23;;;;;;;2.70;2.50;;;14.30;99.90;;;;;;5018190;28;20211;-77
2022/05/09 00:21:54;;;;;;;2.28;2.17;;;14.30;99.90;;;;;;5018669;28;20215;-78
2022/05/09 00:24:22;;;;;;;2.80;2.60;;;14.30;99.90;;;;;;5022832;28;20266;-77
2022/05/09 00:26:52;;;;;;;2.47;2.38;;;14.20;99.90;;;;;;5030296;28;20211;-77
2022/05/09 00:29:20;;;;;;;2.90;2.70;;;14.20;99.90;;;;;;5030096;28;20227;-79
2022/05/09 00:31:50;;;;;;;2.33;2.22;;;14.20;99.90;;;;;;5020259;28;20217;-77
2022/05/09 00:34:19;;;;;;;2.72;2.60;;;14.20;99.90;;;;;;5023982;28;20706;-79
2022/05/09 00:36:47;;;;;;;2.65;2.45;;;14.30;99.90;;;;;;5019749;28;20196;-78
2022/05/09 00:39:17;;;;;;;2.28;2.17;;;14.30;99.90;;;;;;5021589;28;20223;-79
2022/05/09 00:41:45;;;;;;;2.70;2.50;;;14.20;99.90;;;;;;5021717;28;20227;-77
2022/05/09 00:44:15;;;;;;;2.22;2.13;;;14.20;99.90;;;;;;5021212;28;20201;-79
2022/05/09 00:46:44;;;;;;;2.45;2.25;;;14.20;99.90;;;;;;5023034;28;20195;-78
2022/05/09 00:49:18;;;;;;;2.88;2.67;;;14.20;99.90;;;;;;5027574;28;20678;-81
2022/05/09 00:51:51;;;;;;;2.60;2.50;;;14.20;99.90;;;;;;5020480;28;20278;-79
2022/05/09 00:54:20;;;;;;;2.67;2.53;;;14.20;99.90;;;;;;5023759;28;20223;-78
2022/05/09 00:56:55;;;;;;;2.67;2.47;;;14.10;99.90;;;;;;5021469;28;20192;-79
2022/05/09 00:59:23;;;;;;;2.83;2.63;;;14.20;99.90;;;;;;5019280;28;20677;-78
2022/05/09 01:01:50;;;;;;;2.60;2.50;;;14.20;99.90;;;;;;5019897;28;20234;-80
2022/05/09 01:04:21;;;;;;;2.60;2.40;;;14.20;99.90;;;;;;5025727;28;20197;-78
2022/05/09 01:06:49;;;;;;;2.28;2.17;;;14.20;99.90;;;;;;5019205;28;20655;-77
2022/05/09 01:09:16;;;;;;;2.58;2.40;;;14.20;99.90;;;;;;5023670;28;20594;-78
2022/05/09 01:11:46;;;;;;;2.60;2.50;;;14.20;99.90;;;;;;5026119;28;20215;-78
2022/05/09 01:14:18;;;;;;;2.80;2.60;;;14.20;99.90;;;;;;5027060;28;20200;-78
2022/05/09 01:16:48;;;;;;;2.53;2.42;;;14.20;99.90;;;;;;5020805;28;20883;-78
2022/05/09 01:19:32;;;;;;;2.92;2.72;;;14.10;99.90;;;;;;5023110;28;21127;-78
2022/05/09 01:22:02;;;;;;;2.72;2.55;;;14.10;99.90;;;;;;5023937;28;20585;-76
2022/05/09 01:24:29;;;;;;;2.42;2.22;;;14.10;99.90;;;;;;5019127;28;20197;-80
2022/05/09 01:26:58;;;;;;;2.40;2.30;;;14.10;99.90;;;;;;5023862;28;20211;-78
2022/05/09 01:29:37;;;;;;;2.45;2.35;;;14.10;99.90;;;;;;5022545;28;20219;-78
2022/05/09 01:32:08;;;;;;;2.67;2.47;;;14.10;99.90;;;;;;5021585;28;20225;-78
2022/05/09 01:34:36;;;;;;;2.90;2.63;;;14.10;99.90;;;;;;5021713;28;20207;-81
2022/05/09 01:37:07;;;;;;;3.13;2.83;;;14.10;99.90;;;;;;5031475;28;20195;-78
2022/05/09 01:39:36;;;;;;;2.78;2.58;;;14.10;99.90;;;;;;5024115;28;20287;-79
2022/05/09 01:42:05;;;;;;;2.95;2.75;;;14.00;99.90;;;;;;5017481;28;20237;-75
2022/05/09 01:44:33;;;;;;;2.92;2.72;;;14.00;99.90;;;;;;5019297;28;20204;-81
2022/05/09 01:49:44;;;;;;;2.53;2.40;;;14.00;99.90;;;;;;5015242;28;20761;-80
2022/05/09 01:52:15;;;;;;;2.92;2.67;;;14.00;99.90;;;;;;5027286;28;20227;-76
2022/05/09 01:54:43;;;;;;;3.03;2.83;;;14.00;99.90;;;;;;5018214;28;20295;-77
2022/05/09 01:57:11;;;;;;;3.10;2.78;;;14.00;99.90;;;;;;5021025;28;20294;-81
2022/05/09 01:59:38;;;;;;;2.67;2.47;;;13.90;99.90;;;;;;5030040;28;20281;-81
2022/05/09 02:02:12;;;;;;;2.28;2.17;;;13.90;99.90;;;;;;5022755;28;20309;-79
2022/05/09 02:04:40;;;;;;;2.80;2.70;;;13.90;99.90;;;;;;5015864;28;20207;-79
2022/05/09 02:07:09;;;;;;;2.88;2.67;;;13.90;99.90;;;;;;5024761;28;20195;-77
2022/05/09 02:09:40;;;;;;;2.53;2.42;;;13.90;99.90;;;;;;5018425;28;20223;-80
2022/05/09 02:12:08;;;;;;;2.60;2.40;;;13.90;99.90;;;;;;5022707;28;20403;-80
2022/05/09 02:14:35;;;;;;;2.90;2.67;;;13.90;99.90;;;;;;5024747;28;20697;-81
2022/05/09 02:17:02;;;;;;;3.00;2.80;;;13.90;99.90;;;;;;5019451;28;20208;-79
2022/05/09 02:19:30;;;;;;;2.70;2.50;;;13.80;99.90;;;;;;5021409;28;20192;-81
2022/05/09 02:21:57;;;;;;;2.53;2.42;;;13.80;99.90;;;;;;5024013;28;20655;-77
2022/05/09 02:24:24;;;;;;;2.85;2.65;;;13.80;99.90;;;;;;5016337;28;20299;-76
2022/05/09 02:26:52;;;;;;;2.65;2.50;;;13.80;99.90;;;;;;5020900;28;20207;-78
2022/05/09 02:29:19;;;;;;;2.80;2.70;;;13.80;99.90;;;;;;5017384;28;20318;-77
2022/05/09 02:31:46;;;;;;;2.50;2.40;;;13.70;99.90;;;;;;5012700;28;20233;-77
2022/05/09 02:34:13;;;;;;;2.88;2.67;;;13.70;99.90;;;;;;5016783;28;20199;-76
2022/05/09 02:36:41;;;;;;;2.92;2.72;;;13.70;99.90;;;;;;5027763;28;20639;-77
2022/05/09 02:39:08;;;;;;;3.47;3.20;;;13.60;99.90;;;;;;5015481;28;20191;-77
2022/05/09 02:41:36;;;;;;;2.70;2.50;;;13.60;99.90;;;;;;5020076;28;20238;-77
2022/05/09 02:44:04;;;;;;;2.88;2.67;;;13.70;99.90;;;;;;5024923;28;20199;-79
2022/05/09 02:46:31;;;;;;;3.15;2.95;;;13.60;99.90;;;;;;5019479;28;20204;-76
2022/05/09 02:48:59;;;;;;;2.85;2.65;;;13.60;99.90;;;;;;5025437;28;20250;-77
2022/05/09 02:51:27;;;;;;;2.72;2.53;;;13.60;99.90;;;;;;5015875;28;20310;-77
2022/05/09 02:53:56;;;;;;;2.88;2.67;;;13.60;99.90;;;;;;5016780;28;20674;-77
2022/05/09 02:56:23;;;;;;;2.65;2.45;;;13.70;99.90;;;;;;5022882;28;20287;-80
2022/05/09 02:58:50;;;;;;;2.53;2.40;;;13.70;99.90;;;;;;5020776;28;20649;-79
2022/05/09 03:01:18;;;;;;;2.90;2.70;;;13.60;99.90;;;;;;5017760;28;20216;-80
2022/05/09 03:06:30;;;;;;;2.47;2.33;;;13.70;99.90;;;;;;5021998;28;20737;-81
2022/05/09 03:08:57;;;;;;;2.65;2.55;;;13.70;99.90;;;;;;5026379;28;20306;-79
2022/05/09 03:11:24;;;;;;;2.63;2.53;;;13.70;99.90;;;;;;5020554;28;20227;-82
2022/05/09 03:13:51;;;;;;;2.58;2.47;;;13.70;99.90;;;;;;5023487;28;20247;-77
2022/05/09 03:16:20;;;;;;;2.70;2.50;;;13.70;99.90;;;;;;5022371;28;20211;-78
2022/05/09 03:18:48;;;;;;;2.97;2.78;;;13.70;99.90;;;;;;5019342;28;20208;-76
2022/05/09 03:21:15;;;;;;;2.88;2.67;;;13.70;99.90;;;;;;5025236;28;21996;-80
2022/05/09 03:23:42;;;;;;;2.70;2.55;;;13.70;99.90;;;;;;5027451;28;20204;-79
2022/05/09 03:26:09;;;;;;;3.10;2.90;;;13.60;99.90;;;;;;5019636;28;20200;-79
2022/05/09 03:28:36;;;;;;;3.00;2.80;;;13.60;99.90;;;;;;5027355;28;20222;-77
2022/05/09 03:31:04;;;;;;;3.00;2.80;;;13.60;99.90;;;;;;5034463;28;20230;-76
2022/05/09 03:33:32;;;;;;;2.50;2.40;;;13.60;99.90;;;;;;5018913;28;20231;-76
2022/05/09 03:36:01;;;;;;;2.85;2.65;;;13.60;99.90;;;;;;5028427;28;20201;-80
2022/05/09 03:38:29;;;;;;;2.83;2.63;;;13.50;99.90;;;;;;5029843;28;20647;-78
2022/05/09 03:40:56;;;;;;;2.90;2.70;;;13.50;99.90;;;;;;5022506;28;20228;-78
2022/05/09 03:43:23;;;;;;;2.50;2.38;;;13.40;99.90;;;;;;5033120;28;20204;-79
2022/05/09 03:45:53;;;;;;;3.13;2.83;;;13.40;99.90;;;;;;5023013;28;20203;-81
2022/05/09 03:48:20;;;;;;;2.90;2.70;;;13.30;99.90;;;;;;5026734;28;20247;-76
2022/05/09 03:50:48;;;;;;;3.13;2.92;;;13.30;99.90;;;;;;5018055;28;20196;-78
2022/05/09 03:53:15;;;;;;;2.92;2.72;;;13.20;99.90;;;;;;5030723;28;20250;-80
2022/05/09 03:55:42;;;;;;;2.95;2.75;;;13.20;99.90;;;;;;5024409;28;20208;-79
2022/05/09 03:58:10;;;;;;;3.28;2.97;;;13.20;99.90;;;;;;5023003;28;20211;-77
2022/05/09 04:00:37;;;;;;;3.55;3.25;;;13.10;99.90;;;;;;5033714;28;20195;-78
2022/05/09 04:03:05;;;;;;;3.13;2.90;;;13.10;99.90;;;;;;5030745;28;20206;-78
2022/05/09 04:05:35;;;;;;;3.13;2.92;;;13.10;99.90;;;;;;5029721;28;21226;-78
2022/05/09 04:08:07;;;;;;;2.80;2.63;;;13.10;99.90;;;;;;5027602;28;20214;-80
2022/05/09 04:10:36;;;;;;;3.58;3.30;;;13.10;99.90;;;;;;5022282;28;20285;-79
2022/05/09 04:13:04;;;;;;;3.22;3.03;;;13.10;99.90;;;;;;5020002;28;20295;-80
2022/05/09 04:18:17;;;;;;;3.22;3.03;;;13.20;99.90;;;;;;5027010;28;20198;-77
2022/05/09 04:20:46;;;;;;;3.60;3.30;;;13.20;99.90;;;;;;5017373;28;20216;-77
2022/05/09 04:23:15;;;;;;;3.10;2.90;;;13.20;99.90;;;;;;5025709;28;20857;-78
2022/05/09 04:25:42;;;;;;;3.25;3.00;;;13.30;99.90;;;;;;5029911;28;20939;-77
2022/05/09 04:28:10;;;;;;;3.22;2.92;;;13.30;99.90;;;;;;5017425;28;20192;-77
2022/05/09 04:30:39;;;;;;;3.13;2.92;;;13.40;99.90;;;;;;5021391;28;20222;-76
2022/05/09 04:33:08;;;;;;;3.17;2.97;;;13.50;99.90;;;;;;5022378;28;20253;-81
2022/05/09 04:35:35;;;;;;;3.35;3.15;;;13.50;99.90;;;;;;5013848;28;20203;-78
2022/05/09 04:38:03;;;;;;;3.28;3.08;;;13.50;99.90;;;;;;5022242;28;20204;-77
2022/05/09 04:40:33;;;;;;;3.22;3.03;;;13.60;99.90;;;;;;5033024;28;20230;-81
2022/05/09 04:45:32;;;;;;;3.90;3.60;;;13.90;99.90;;;;;;5057022;28;20210;-78
2022/05/09 04:47:59;;;;;;;3.38;3.10;;;14.00;99.90;;;;;;5062775;28;20661;-77
2022/05/09 04:50:29;;;;;;;3.63;3.33;;;14.10;99.90;;;;;;5062005;28;20217;-76
2022/05/09 04:52:56;;;;;;;3.80;3.50;;;14.20;99.90;;;;;;5065417;28;20202;-77
2022/05/09 04:55:24;;;;;;;3.65;3.35;;;14.40;99.90;;;;;;5052457;28;20616;-76
2022/05/09 04:57:53;;;;;;;3.35;3.15;;;14.50;99.90;;;;;;5044745;28;20764;-78
2022/05/09 05:00:24;;;;;;;3.47;3.20;;;14.70;99.90;;;;;;5042421;28;20196;-77
2022/05/09 05:02:51;;;;;;;3.10;2.90;;;14.80;99.90;;;;;;5048650;28;20221;-77
2022/05/09 05:05:18;;;;;;;3.17;2.97;;;15.00;99.90;;;;;;5039950;28;20223;-77
2022/05/09 05:07:48;;;;;;;3.53;3.10;;;15.20;99.90;;;;;;5041073;28;20217;-77
2022/05/09 05:10:16;;;;;;;3.80;3.42;;;15.40;99.90;;;;;;5041833;28;20263;-78
2022/05/09 05:12:43;;;;;;;3.75;3.50;;;15.30;99.90;;;;;;5039640;28;20199;-77
2022/05/09 05:15:12;;;;;;;3.80;3.53;;;15.20;99.90;;;;;;5034084;28;20595;-75
2022/05/09 05:17:40;;;;;;;3.40;3.20;;;15.30;99.90;;;;;;5040098;28;20605;-77
2022/05/09 05:20:10;;;;;;;3.40;3.10;;;15.40;99.90;;;;;;5039446;28;20206;-76
2022/05/09 05:22:38;;;;;;;3.35;3.15;;;15.50;99.90;;;;;;5044591;28;20285;-77
2022/05/09 05:25:07;;;;;;;3.47;3.28;;;15.80;99.90;;;;;;5055558;28;20213;-77
2022/05/09 05:27:34;;;;;;;3.90;3.60;;;16.10;99.90;;;;;;5051054;28;20200;-77
2022/05/09 05:30:01;;;;;;;3.70;3.10;;;16.40;99.90;;;;;;5044262;28;20222;-77
2022/05/09 05:32:34;;;;;;;3.60;3.30;;;16.60;99.90;;;;;;5045888;28;20202;-77
2022/05/09 05:35:01;;;;;;;3.28;3.05;;;16.80;99.90;;;;;;5040436;28;20248;-77
2022/05/09 05:37:28;;;;;;;3.97;3.35;;;16.80;99.90;;;;;;5035193;28;20253;-77
2022/05/09 05:39:57;;;;;;;3.72;3.42;;;16.80;99.90;;;;;;5044495;28;20242;-77
2022/05/09 05:42:24;;;;;;;3.28;2.97;;;16.90;99.90;;;;;;5040526;28;20630;-77
2022/05/09 05:44:51;;;;;;;3.63;3.03;;;17.00;99.90;;;;;;5038686;28;20289;-77
2022/05/09 05:47:20;;;;;;;3.00;2.80;;;17.10;99.90;;;;;;5047929;28;20640;-77
2022/05/09 05:49:49;;;;;;;3.33;3.13;;;17.20;99.90;;;;;;5040323;28;20479;-76
2022/05/09 05:52:16;;;;;;;3.50;3.30;;;17.30;99.90;;;;;;5041276;28;20194;-77
2022/05/09 05:54:45;;;;;;;3.53;3.22;;;17.40;99.90;;;;;;5041434;28;20367;-77
2022/05/09 05:57:21;;;;;;;3.55;3.20;;;17.40;99.90;;;;;;5039401;28;20191;-78
2022/05/09 05:59:53;;;;;;;3.17;2.97;;;17.50;99.90;;;;;;5038595;28;20217;-77
2022/05/09 06:02:21;;;;;;;3.88;3.55;;;17.60;99.90;;;;;;5037272;28;20199;-77
2022/05/09 06:04:50;;;;;;;3.40;3.20;;;17.70;99.90;;;;;;5036530;28;20220;-77
2022/05/09 06:07:18;;;;;;;3.42;3.13;;;17.70;99.90;;;;;;5036912;28;20196;-77
2022/05/09 06:09:46;;;;;;;3.85;3.55;;;17.70;99.90;;;;;;5030556;28;20211;-77
2022/05/09 06:12:14;;;;;;;3.88;3.58;;;17.60;99.90;;;;;;5034240;28;20191;-76
2022/05/09 06:14:42;;;;;;;3.20;3.00;;;17.60;99.90;;;;;;5035033;28;20223;-76
2022/05/09 06:17:10;;;;;;;3.35;3.15;;;17.60;99.90;;;;;;5041627;28;20641;-77
2022/05/09 06:19:38;;;;;;;3.40;3.20;;;17.40;99.90;;;;;;5034416;28;20627;-77
2022/05/09 06:22:06;;;;;;;3.63;3.28;;;17.10;99.90;;;;;;5038698;28;20201;-75
2022/05/09 06:24:33;;;;;;;3.55;3.25;;;17.10;99.90;;;;;;5032115;28;20210;-78
2022/05/09 06:27:02;;;;;;;3.60;3.00;;;17.30;99.90;;;;;;5039532;28;20210;-74
2022/05/09 06:29:29;;;;;;;3.70;3.40;;;17.30;99.90;;;;;;5036427;28;20233;-74
2022/05/09 06:31:57;;;;;;;3.53;3.13;;;17.40;99.90;;;;;;5042077;28;20209;-74
2022/05/09 06:34:24;;;;;;;3.65;3.35;;;17.40;99.90;;;;;;5050892;28;20622;-74
2022/05/09 06:36:51;;;;;;;3.47;3.17;;;17.50;99.90;;;;;;5026808;28;20230;-77
2022/05/09 06:39:19;;;;;;;3.45;3.15;;;17.60;99.90;;;;;;5047458;28;20240;-75
2022/05/09 06:41:47;;;;;;;3.78;3.38;;;17.50;99.90;;;;;;5032437;28;20199;-75
2022/05/09 06:44:14;;;;;;;3.10;2.90;;;17.50;99.90;;;;;;5041671;28;20790;-77
2022/05/09 06:46:41;;;;;;;3.95;3.55;;;17.40;99.90;;;;;;5030112;28;20205;-75
2022/05/09 06:49:08;;;;;;;3.78;3.47;;;17.40;99.90;;;;;;5031041;28;20428;-76
2022/05/09 06:51:35;;;;;;;3.60;3.40;;;17.50;99.90;;;;;;5038457;28;20668;-76
2022/05/09 06:54:03;;;;;;;4.45;3.35;;;17.70;99.90;;;;;;5037537;28;20223;-75
2022/05/09 06:56:31;;;;;;;3.50;3.20;;;17.90;99.90;;;;;;5051180;28;20368;-75
2022/05/09 06:58:58;;;;;;;3.38;3.17;;;18.30;99.90;;;;;;5040337;28;20618;-73
2022/05/09 07:01:25;;;;;;;3.90;3.10;;;18.60;99.90;;;;;;5037835;28;20261;-74
2022/05/09 07:03:53;;;;;;;3.40;3.20;;;18.90;99.90;;;;;;5036845;28;20226;-75
2022/05/09 07:06:20;;;;;;;3.35;3.15;;;19.10;99.90;;;;;;5040754;28;20330;-76
2022/05/09 07:08:47;;;;;;;3.17;2.90;;;19.10;99.90;;;;;;5038064;28;20582;-76
2022/05/09 07:11:15;;;;;;;3.53;3.22;;;19.20;99.90;;;;;;5039308;28;20774;-76
2022/05/09 07:13:44;;;;;;;3.50;3.20;;;19.20;99.90;;;;;;5039024;28;20219;-76
2022/05/09 07:16:11;;;;;;;3.65;2.80;;;19.30;99.90;;;;;;5033269;28;20281;-76
2022/05/09 07:18:39;;;;;;;3.03;2.83;;;19.30;99.90;;;;;;5048206;28;20231;-76
2022/05/09 07:21:06;;;;;;;3.15;2.88;;;19.30;99.90;;;;;;5045992;28;20298;-76
2022/05/09 07:23:34;;;;;;;3.22;2.97;;;19.40;99.90;;;;;;5043947;28;20221;-75
2022/05/09 07:26:02;;;;;;;3.17;2.88;;;19.60;99.90;;;;;;5047411;28;20209;-76
2022/05/09 07:28:30;;;;;;;3.28;3.08;;;19.30;99.90;;;;;;5043514;28;20289;-74
2022/05/09 07:31:00;;;;;;;3.25;3.05;;;19.00;99.90;;;;;;5049127;28;20409;-75
2022/05/09 07:33:28;;;;;;;3.40;3.20;;;19.00;99.90;;;;;;5042350;28;20708;-76
2022/05/09 07:35:55;;;;;;;3.20;3.00;;;19.10;99.90;;;;;;5034240;28;20240;-76
2022/05/09 07:38:22;;;;;;;4.68;3.55;;;19.10;99.90;;;;;;5042039;28;20532;-73
2022/05/09 07:40:49;;;;;;;3.58;3.28;;;19.20;99.90;;;;;;5040978;28;20688;-75
2022/05/09 07:43:18;;;;;;;3.83;3.53;;;19.20;99.90;;;;;;5041387;28;20229;-75
2022/05/09 07:45:47;;;;;;;3.35;3.05;;;19.30;99.90;;;;;;5039759;28;20544;-75
2022/05/09 07:48:16;;;;;;;3.97;3.67;;;19.30;99.90;;;;;;5037846;28;20790;-74
2022/05/09 07:50:43;;;;;;;3.90;3.60;;;18.90;99.90;;;;;;5040697;28;20289;-75
2022/05/09 07:53:12;;;;;;;3.63;3.33;;;18.60;99.90;;;;;;5038552;28;20217;-75
2022/05/09 07:55:41;;;;;;;3.80;3.50;;;18.50;99.90;;;;;;5049848;28;20194;-75
2022/05/09 07:58:09;;;;;;;3.58;3.28;;;18.30;99.90;;;;;;5038775;28;20230;-76
2022/05/09 08:00:36;;;;;;;3.38;3.08;;;18.10;99.90;;;;;;5043727;28;20197;-76
2022/05/09 08:03:04;;;;;;;3.50;3.20;;;18.00;99.90;;;;;;5047578;28;20215;-76
2022/05/09 08:05:33;;;;;;;4.47;3.50;;;17.90;99.90;;;;;;5041999;28;20195;-76
2022/05/09 08:08:01;;;;;;;3.50;2.72;;;18.00;99.90;;;;;;5041314;28;20223;-76
2022/05/09 08:10:29;;;;;;;3.35;2.78;;;18.20;99.90;;;;;;5046983;28;20326;-78
2022/05/09 08:12:58;;;;;;;3.40;3.20;;;18.30;99.90;;;;;;5045980;28;20254;-77
2022/05/09 08:15:27;;;;;;;3.25;2.85;;;18.20;99.90;;;;;;5045820;28;20639;-76
2022/05/09 08:17:54;;;;;;;4.32;3.15;;;18.20;99.90;;;;;;5051607;28;20545;-76
2022/05/09 08:20:22;;;;;;;6.15;3.05;;;18.20;99.90;;;;;;5039676;28;20195;-76
2022/05/09 08:22:59;;;;;;;3.70;2.70;;;18.10;99.90;;;;;;5039460;28;20713;-76
2022/05/09 08:25:27;;;;;;;3.78;3.05;;;18.00;99.90;;;;;;5046168;28;20264;-77
2022/05/09 08:27:54;;;;;;;3.35;3.08;;;18.00;99.90;;;;;;5039627;28;20591;-75
2022/05/09 08:30:21;;;;;;;3.42;3.13;;;18.10;99.90;;;;;;5040729;28;20227;-76
2022/05/09 08:32:48;;;;;;;3.80;3.50;;;18.30;99.90;;;;;;5045720;28;20241;-75
2022/05/09 08:35:15;;;;;;;3.53;3.17;;;18.40;99.90;;;;;;5042911;28;20595;-77
2022/05/09 08:37:43;;;;;;;2.85;2.65;;;18.60;99.90;;;;;;5042696;28;20222;-77
2022/05/09 08:40:13;;;;;;;3.45;3.15;;;18.70;99.90;;;;;;5036628;28;20291;-75
2022/05/09 08:42:42;;;;;;;3.05;2.85;;;19.20;99.90;;;;;;5042678;28;20300;-76
2022/05/09 08:45:18;;;;;;;4.07;3.30;;;19.30;99.90;;;;;;5027705;28;20246;-76
2022/05/09 08:48:13;;;;;;;3.72;3.42;;;19.10;99.90;;;;;;5048751;28;20305;-74
2022/05/09 08:50:53;;;;;;;2.90;2.70;;;18.90;99.90;;;;;;5036471;28;20263;-75
2022/05/09 08:53:23;;;;;;;3.22;2.70;;;18.60;99.90;;;;;;5035998;28;20568;-76
2022/05/09 08:55:53;;;;;;;3.60;3.30;;;18.40;99.90;;;;;;5052113;28;20202;-76
2022/05/09 08:58:33;;;;;;;3.55;3.25;;;18.30;99.90;;;;;;5038630;28;21146;-74
2022/05/09 09:01:03;;;;;;;3.45;3.22;;;18.30;99.90;;;;;;5032360;28;20754;-75
2022/05/09 09:03:34;;;;;;;3.50;3.20;;;18.30;99.90;;;;;;5031407;28;20774;-72
2022/05/09 09:06:08;;;;;;;3.55;3.20;;;18.30;99.90;;;;;;5032292;28;20202;-75
2022/05/09 09:08:46;;;;;;;3.05;2.85;;;18.30;99.90;;;;;;5037769;28;20668;-74
2022/05/09 09:11:30;;;;;;;3.30;3.10;;;18.30;99.90;;;;;;5038687;28;20221;-74
2022/05/09 09:14:06;;;;;;;3.17;2.90;;;18.30;99.90;;;;;;5048540;28;20231;-73
2022/05/09 09:16:53;;;;;;;2.85;2.58;;;18.40;99.90;;;;;;5049208;28;20212;-75
2022/05/09 09:19:38;;;;;;;3.38;3.08;;;18.50;99.90;;;;;;5044596;28;20200;-74
2022/05/09 09:22:18;;;;;;;3.47;3.17;;;18.60;99.90;;;;;;5049531;28;20300;-73
2022/05/09 09:25:08;;;;;;;2.70;2.50;;;18.70;99.90;;;;;;5051646;28;20249;-73
2022/05/09 09:27:43;;;;;;;3.00;2.80;;;18.70;99.90;;;;;;5047831;28;20225;-73
2022/05/09 09:30:14;;;;;;;3.88;2.85;;;18.80;99.90;;;;;;5039448;28;20213;-72
2022/05/09 09:32:42;;;;;;;2.92;2.72;;;18.80;99.90;;;;;;5045310;28;20269;-75
2022/05/09 09:35:15;;;;;;;6.22;3.70;;;18.90;99.90;;;;;;5046535;28;20223;-74
2022/05/09 09:37:49;;;;;;;3.40;3.20;;;19.00;99.90;;;;;;5042448;28;20743;-73
2022/05/09 09:40:16;;;;;;;4.80;3.33;;;18.90;99.90;;;;;;5048103;28;20252;-74
2022/05/09 09:42:45;;;;;;;3.92;3.30;;;18.90;99.90;;;;;;5040344;28;20273;-74
2022/05/09 09:45:30;;;;;;;4.13;3.17;;;18.80;99.90;;;;;;5046117;28;20223;-75
2022/05/09 09:48:09;;;;;;;3.85;3.00;;;18.50;99.90;;;;;;5048364;28;20218;-74
2022/05/09 09:50:37;;;;;;;3.42;3.13;;;18.40;99.90;;;;;;5048627;28;20210;-75
2022/05/09 09:53:07;;;;;;;3.15;2.95;;;18.40;99.90;;;;;;5050408;28;20229;-74
2022/05/09 09:55:36;;;;;;;2.95;2.70;;;18.40;99.90;;;;;;5051764;28;20559;-74
2022/05/09 09:58:21;;;;;;;2.80;2.60;;;18.60;99.90;;;;;;5044366;28;20314;-74
2022/05/09 10:01:04;;;;;;;3.08;2.88;;;18.70;99.90;;;;;;5055511;28;20291;-75
2022/05/09 10:03:33;;;;;;;3.17;2.97;;;18.60;99.90;;;;;;5045773;28;20223;-73
2022/05/09 10:06:01;;;;;;;3.03;2.83;;;18.60;99.90;;;;;;5046481;28;20205;-75
2022/05/09 10:08:32;;;;;;;2.80;2.60;;;18.60;99.90;;;;;;5050366;28;20219;-72
2022/05/09 10:11:08;;;;;;;3.40;3.20;;;18.60;99.90;;;;;;5044147;28;20219;-74
2022/05/09 10:13:38;;;;;;;2.78;2.58;;;18.50;99.90;;;;;;5047452;28;20232;-75
2022/05/09 10:16:11;;;;;;;4.60;3.15;;;18.50;99.90;;;;;;5057678;28;20210;-75
2022/05/09 10:18:39;;;;;;;3.45;3.15;;;18.60;99.90;;;;;;5048018;28;20218;-75
2022/05/09 10:21:17;;;;;;;3.35;3.15;;;18.70;99.90;;;;;;5050792;28;20198;-74
2022/05/09 10:26:38;;;;;;;5.38;3.00;;;18.90;99.90;;;;;;5051719;28;20210;-75
2022/05/09 10:29:17;;;;;;;2.80;2.60;;;19.00;99.90;;;;;;5054279;28;20222;-74
2022/05/09 10:31:49;;;;;;;2.90;2.70;;;19.10;99.90;;;;;;5044007;28;20337;-72
2022/05/09 10:34:22;;;;;;;3.72;2.80;;;19.00;99.90;;;;;;5043597;28;20600;-75
2022/05/09 10:36:54;;;;;;;2.63;2.42;;;19.00;99.90;;;;;;5047071;28;20652;-75
2022/05/09 10:39:26;;;;;;;2.70;2.55;;;19.10;99.90;;;;;;5051929;28;20317;-74
2022/05/09 10:41:57;;;;;;;15.07;10.32;;;19.20;99.90;;;;;;5040920;28;20793;-75
2022/05/09 10:44:32;;;;;;;36.13;21.70;;;19.10;99.90;;;;;;5035424;28;20287;-75
2022/05/09 10:47:03;;;;;;;15.48;10.30;;;19.10;99.90;;;;;;5040886;28;20206;-73
2022/05/09 10:49:40;;;;;;;10.65;7.25;;;19.10;99.90;;;;;;5050734;28;20727;-73
2022/05/09 10:52:16;;;;;;;6.00;5.32;;;19.10;99.90;;;;;;5043993;28;20224;-73
2022/05/09 10:54:49;;;;;;;4.80;4.35;;;19.10;99.90;;;;;;5037150;28;20214;-73
2022/05/09 10:57:26;;;;;;;4.68;4.28;;;19.10;99.90;;;;;;5040660;28;20199;-75
2022/05/09 11:00:01;;;;;;;5.15;4.43;;;19.30;99.90;;;;;;5036210;28;20253;-75
2022/05/09 11:02:34;;;;;;;4.07;3.53;;;19.40;99.90;;;;;;5038530;28;20249;-74
2022/05/09 11:05:01;;;;;;;3.50;3.20;;;19.50;99.90;;;;;;5036757;28;20302;-74
2022/05/09 11:07:35;;;;;;;3.78;2.97;;;19.70;99.90;;;;;;5035237;28;20551;-74
2022/05/09 11:10:18;;;;;;;2.88;2.67;;;19.70;99.90;;;;;;5031637;28;20189;-75
2022/05/09 11:12:58;;;;;;;3.10;2.90;;;19.80;99.90;;;;;;5030224;28;20219;-75
2022/05/09 11:18:29;;;;;;;2.83;2.63;;;19.90;99.90;;;;;;5024846;28;20283;-75
2022/05/09 11:21:09;;;;;;;3.35;3.00;;;20.00;99.90;;;;;;5028324;28;20211;-76
2022/05/09 11:23:48;;;;;;;3.13;2.92;;;20.20;99.90;;;;;;5030475;28;20221;-75
2022/05/09 11:26:22;;;;;;;3.40;3.10;;;20.30;99.90;;;;;;5026695;28;20301;-75
2022/05/09 11:29:29;;;;;;;3.20;3.00;;;20.50;99.90;;;;;;5009320;28;20250;-76
2022/05/09 11:32:16;;;;;;;2.88;2.67;;;20.60;99.90;;;;;;5018092;28;20219;-75
2022/05/09 11:35:10;;;;;;;3.22;3.00;;;21.00;99.90;;;;;;5011933;28;20238;-75
2022/05/09 11:37:51;;;;;;;4.32;3.92;;;21.30;99.90;;;;;;5010027;28;20216;-75
2022/05/09 11:40:27;;;;;;;3.40;3.10;;;21.60;99.90;;;;;;5012271;28;20196;-75
2022/05/09 11:45:59;;;;;;;2.70;2.50;;;22.20;99.90;;;;;;5011275;28;20702;-75
2022/05/09 11:48:35;;;;;;;2.60;2.40;;;22.50;99.90;;;;;;5014963;28;20211;-76
2022/05/09 11:51:13;;;;;;;2.92;2.72;;;22.60;99.90;;;;;;5012956;28;20211;-76
2022/05/09 11:53:45;;;;;;;2.60;2.40;;;22.60;99.90;;;;;;5015399;28;20219;-74
2022/05/09 11:56:13;;;;;;;2.88;2.67;;;22.60;99.90;;;;;;5013866;28;20222;-74
2022/05/09 11:58:43;;;;;;;3.13;2.85;;;22.70;99.90;;;;;;5016301;28;20776;-77
2022/05/09 12:01:11;;;;;;;2.97;2.72;;;22.60;99.90;;;;;;5013568;28;20215;-75
2022/05/09 12:04:02;;;;;;;3.30;2.95;;;22.50;99.90;;;;;;5013722;28;20246;-74
2022/05/09 12:06:39;;;;;;;3.03;2.83;;;22.50;99.90;;;;;;5015553;28;21082;-75
2022/05/09 12:09:36;;;;;;;3.10;2.80;;;22.50;99.90;;;;;;5015838;28;20301;-76
2022/05/09 12:12:05;;;;;;;2.78;2.58;;;22.60;99.90;;;;;;5014794;28;20467;-77
2022/05/09 12:14:50;;;;;;;2.70;2.50;;;22.50;99.90;;;;;;5020052;28;20235;-76
2022/05/09 12:17:34;;;;;;;3.10;2.90;;;22.30;99.90;;;;;;5015061;28;20251;-77
2022/05/09 12:20:04;;;;;;;4.18;2.53;;;22.30;99.90;;;;;;5017351;28;20951;-76
2022/05/09 12:22:47;;;;;;;2.95;2.75;;;22.10;99.90;;;;;;5019948;28;20721;-76
2022/05/09 12:26:03;;;;;;;2.80;2.60;;;22.00;99.90;;;;;;5022559;28;20266;-76
2022/05/09 12:28:33;;;;;;;3.20;2.80;;;22.00;99.90;;;;;;5022054;28;20195;-76
2022/05/09 12:31:02;;;;;;;2.45;2.25;;;22.00;99.90;;;;;;5021508;28;20578;-77
2022/05/09 12:33:37;;;;;;;2.95;2.75;;;22.00;99.90;;;;;;5021461;28;20435;-77
2022/05/09 12:36:08;;;;;;;2.70;2.58;;;22.10;99.90;;;;;;5021187;28;20226;-76
2022/05/09 12:38:39;;;;;;;2.60;2.40;;;22.20;99.90;;;;;;5014891;28;20204;-77
2022/05/09 12:41:11;;;;;;;3.15;2.80;;;22.30;99.90;;;;;;5018244;28;20270;-77
2022/05/09 12:43:42;;;;;;;5.10;3.17;;;22.30;99.90;;;;;;5013135;28;20214;-76
2022/05/09 12:46:18;;;;;;;4.95;3.15;;;22.10;99.90;;;;;;5013431;28;20223;-77
2022/05/09 12:48:47;;;;;;;2.97;2.67;;;22.00;99.90;;;;;;5014159;28;20188;-77
2022/05/09 12:51:14;;;;;;;3.20;2.92;;;22.00;99.90;;;;;;5016252;28;20709;-76
2022/05/09 12:53:43;;;;;;;3.05;2.85;;;21.90;99.90;;;;;;5018650;28;20261;-77
2022/05/09 12:56:14;;;;;;;3.47;3.17;;;21.90;99.90;;;;;;5017811;28;20228;-75
2022/05/09 12:58:46;;;;;;;4.65;3.38;;;21.80;99.90;;;;;;5013142;28;20240;-76
2022/05/09 13:01:18;;;;;;;3.40;3.10;;;21.70;99.90;;;;;;5014315;28;20889;-76
2022/05/09 13:03:48;;;;;;;3.33;2.97;;;21.70;99.90;;;;;;5018853;28;20629;-77
2022/05/09 13:06:17;;;;;;;2.88;2.67;;;21.70;99.90;;;;;;5009727;28;20230;-77
2022/05/09 13:08:45;;;;;;;3.70;3.40;;;21.80;99.90;;;;;;5014946;28;20200;-76
2022/05/09 13:11:18;;;;;;;3.10;2.90;;;21.90;99.90;;;;;;5017997;28;20227;-76
2022/05/09 13:14:00;;;;;;;3.58;2.72;;;22.00;99.90;;;;;;5018247;28;20482;-76
2022/05/09 13:16:33;;;;;;;2.97;2.67;;;22.00;99.90;;;;;;5016977;28;20223;-76
2022/05/09 13:19:01;;;;;;;4.68;2.90;;;22.00;99.90;;;;;;5017072;28;20277;-77
2022/05/09 13:21:32;;;;;;;4.18;2.60;;;22.00;99.90;;;;;;5029448;28;20526;-76
2022/05/09 13:24:03;;;;;;;5.00;3.15;;;21.90;99.90;;;;;;5014432;28;20207;-76